Downstream station:
SHEF ID: ENWK1 CROOKED C NR ENGLEWOOD, KS
STATION TYPE:
Regulating: Stage = 6.50, Flow = 243
PRECIP STAGE RIV-FLOW BAT-LOAD
in ft cfs volt
Ccp-Rev Ccp-Rev Ccp-Rev Ccp-Rev
(US/Central)
01/20 00:00 0.00 2.40 3 12.83
01/20 01:00 0.00 2.40 3 12.77
01/20 02:00 0.00 2.40 3 12.77
01/20 03:00 0.00 2.40 3 12.71
01/20 04:00 0.00 2.42 3 12.71
01/20 05:00 0.00 2.60 6 12.65
01/20 06:00 0.00 2.64 6 12.60
01/20 07:00 0.00 2.67 7 12.54
01/20 08:00 0.00 2.69 7 12.54
01/20 09:00 0.00 2.72 8 12.77
01/20 10:00 0.00 2.77 8 13.53
01/20 11:00 0.00 2.49 4 14.41
01/20 12:00 0.00 2.34 2 14.88
01/20 13:00 0.00 2.32 2 14.71
01/20 14:00 0.00 2.33 2 14.65
01/20 15:00 0.00 2.35 3 14.53
01/20 16:00 0.00 2.40 3 14.47
01/20 17:00 0.00 2.43 3 14.18
01/20 18:00 0.00 2.44 4 14.06
01/20 19:00 0.00 2.43 3 13.36
01/20 20:00 0.00 2.43 3 13.00
01/20 21:00 0.00 2.55 5 12.89
01/20 22:00 0.00 2.56 5 12.89
01/20 23:00 ---- ---- ---- ----